Airfield :
LOGIN :

Register | Disclaimer

   EN    FR    IT 

 










Legend :    VFR   Marginal VFR   IFR   Intensive IFR   Very Intensive IFR
Visi :
Ceiling :
>= 8 km
>= 3000ft
5 to 8 km
1000 to 3000 ft
1500m to 5 km
500 to 1000 ft
800 to 1500m
200 to 500 ft
< 800m
< 200 ft
Symbols :   Thunderstorms  Fog  Heavy snow  Heavy precipitations  Wind > 20 kt
SIGMETs :     Misc.  Thunderstorms  Icing  Turbulence  Mountain Waves  Volcanic Ashes






- Airport Elevation : 30 ft
- IATA code : CFN


EIDL - Donegal

CURRENT METAR :
  • 151400Z 35009KT 9999 BKN035 17/15 Q1008

EXPIRED METARs :
  • 151342Z 35008KT 9999 -SHRA BKN035 16/14 Q1008
  • 151301Z 36009KT 9999 BKN036 17/14 Q1007
  • 151230Z 36010KT 9999 FEW042 18/14 Q1007
  • 151200Z 36011KT 9999 FEW043 19/14 Q1007
  • 151130Z 36009KT CAVOK 19/14 Q1007
  • 151101Z 35008KT CAVOK 19/14 Q1007
  • 151031Z 36008KT CAVOK 18/14 Q1007
  • 151000Z 35007KT CAVOK 18/14 Q1008

TAF TAF EIDL
Valid from the 15 at 12:00 until the 15 at 21:00 UTC


151100Z 1512/1521 36009KT 9999 FEW040
PROB30
TEMPO 1513/1517 4000 SHRA
TEMPO 1519/1521 3000 BR BKN004



MET'MAP, your aeronautical weather chart ! - Copyright ORBIFLY December 2007 - Disclaimer

ORBIFLY MET'MAP TEAM :

Programming & Development : Alexandra Zaïnal
Original concept : Baudouin d'Aumeries
Technical & hardware support : Manuel Goepfert
Assistance : Marc-Olivier Méhu




SOURCES & CREDITS :

   NOAA